createdAt,value
2022-08-23T00:01:28.408Z,68.32
2022-08-23T00:04:06.526Z,68.26
2022-08-23T00:06:38.984Z,68.34
2022-08-23T00:09:13.181Z,68.46
2022-08-23T00:11:48.982Z,68.58
2022-08-23T00:14:24.842Z,68.61
2022-08-23T00:16:58.754Z,68.62
2022-08-23T00:19:31.404Z,68.55
2022-08-23T00:22:03.816Z,68.71
2022-08-23T00:24:40.758Z,68.82
2022-08-23T00:27:15.009Z,68.81
2022-08-23T00:29:49.516Z,68.81
2022-08-23T00:32:23.935Z,69.18
2022-08-23T00:34:56.129Z,69.16
2022-08-23T00:37:28.691Z,69.39
2022-08-23T00:40:01.084Z,69.42
2022-08-23T00:42:56.488Z,69.65
2022-08-23T00:45:51.667Z,69.70
2022-08-23T00:48:24.340Z,69.90
2022-08-23T00:51:04.566Z,69.86
2022-08-23T00:53:42.702Z,69.88
2022-08-23T00:56:18.472Z,69.96
2022-08-23T00:58:50.610Z,69.86
2022-08-23T01:01:22.857Z,69.86
2022-08-23T01:04:04.403Z,70.11
2022-08-23T01:06:44.173Z,70.09
2022-08-23T01:09:18.754Z,69.98
2022-08-23T01:11:55.630Z,69.86
2022-08-23T01:14:33.065Z,70.01
2022-08-23T01:17:08.073Z,69.92
2022-08-23T01:19:43.566Z,69.92
2022-08-23T01:22:21.124Z,69.87
2022-08-23T01:25:07.147Z,69.80
2022-08-23T01:27:44.030Z,69.89
2022-08-23T01:30:21.285Z,70.11
2022-08-23T01:32:56.348Z,70.26
2022-08-23T01:35:36.440Z,70.31
2022-08-23T01:38:10.753Z,70.36
2022-08-23T01:40:44.939Z,70.47
2022-08-23T01:43:19.824Z,70.62
2022-08-23T01:45:54.541Z,70.79
2022-08-23T01:48:28.348Z,71.26
2022-08-23T01:51:01.106Z,71.25
2022-08-23T01:53:34.140Z,71.22
2022-08-23T01:56:08.251Z,71.53
2022-08-23T01:58:42.489Z,71.56
2022-08-23T02:01:16.491Z,71.74
2022-08-23T02:03:57.238Z,72.12
2022-08-23T02:06:37.329Z,71.92
2022-08-23T02:09:17.707Z,72.01
2022-08-23T02:11:51.550Z,72.36
2022-08-23T02:14:24.407Z,72.52
2022-08-23T02:17:04.362Z,72.71
2022-08-23T02:19:41.355Z,72.77
2022-08-23T02:22:14.743Z,73.25
2022-08-23T02:24:48.664Z,73.36
2022-08-23T02:27:20.833Z,73.77
2022-08-23T02:29:53.124Z,74.20
2022-08-23T02:32:26.919Z,74.06
2022-08-23T02:35:05.148Z,74.49
2022-08-23T02:37:39.088Z,74.89
2022-08-23T02:40:12.927Z,75.18
2022-08-23T02:42:45.211Z,75.61
2022-08-23T02:45:18.490Z,75.46
2022-08-23T02:47:52.782Z,75.60
2022-08-23T02:50:31.152Z,75.89
2022-08-23T02:53:03.636Z,75.89
2022-08-23T02:55:36.072Z,76.10
2022-08-23T02:58:08.364Z,76.08
2022-08-23T03:00:40.668Z,75.96
2022-08-23T03:03:12.864Z,76.17
2022-08-23T03:05:45.343Z,76.27
2022-08-23T03:08:17.617Z,76.23
2022-08-23T03:10:54.282Z,76.13
2022-08-23T03:13:26.428Z,76.60
2022-08-23T03:15:59.632Z,76.67
2022-08-23T03:18:32.008Z,76.87
2022-08-23T03:21:05.929Z,76.91
2022-08-23T03:23:39.390Z,76.71
2022-08-23T03:26:13.883Z,76.77
2022-08-23T03:28:48.324Z,76.89
2022-08-23T03:31:22.485Z,76.78
2022-08-23T03:34:12.340Z,76.90
2022-08-23T03:36:44.889Z,77.02
2022-08-23T03:39:17.558Z,76.94
2022-08-23T03:41:50.113Z,77.07
2022-08-23T03:44:22.662Z,76.79
2022-08-23T03:46:54.814Z,76.82
2022-08-23T03:49:28.136Z,76.93
2022-08-23T03:52:02.188Z,77.01
2022-08-23T03:54:36.263Z,77.28
2022-08-23T03:57:10.795Z,76.98
2022-08-23T03:59:43.860Z,77.42
2022-08-23T04:02:17.137Z,77.30
2022-08-23T04:04:49.324Z,77.42
2022-08-23T04:07:27.593Z,77.26
2022-08-23T04:10:01.254Z,77.23
2022-08-23T04:12:37.134Z,77.46
2022-08-23T04:15:12.163Z,77.44
2022-08-23T04:17:44.616Z,77.41
2022-08-23T04:20:16.824Z,77.28
2022-08-23T04:22:57.365Z,77.33
2022-08-23T04:25:33.995Z,77.06
2022-08-23T04:28:08.322Z,77.04
2022-08-23T04:30:40.750Z,77.44
2022-08-23T04:33:17.825Z,77.03
2022-08-23T04:35:51.026Z,76.74
2022-08-23T04:38:25.102Z,77.05
2022-08-23T04:41:16.341Z,76.74
2022-08-23T04:43:50.705Z,76.48
2022-08-23T04:46:23.000Z,76.38
2022-08-23T04:48:56.107Z,76.17
2022-08-23T04:51:29.471Z,75.98
2022-08-23T04:54:01.690Z,75.06
2022-08-23T04:56:43.186Z,74.10
2022-08-23T04:59:15.934Z,72.88
2022-08-23T05:01:49.190Z,72.01
2022-08-23T05:04:21.805Z,71.78
2022-08-23T05:06:54.359Z,70.66
2022-08-23T05:09:27.158Z,70.13
2022-08-23T05:11:59.586Z,69.66
2022-08-23T05:14:32.945Z,69.04
2022-08-23T05:17:05.213Z,68.04
2022-08-23T05:19:39.432Z,67.69
2022-08-23T05:22:16.767Z,66.61
2022-08-23T05:25:10.165Z,65.63
2022-08-23T05:27:43.043Z,64.70
2022-08-23T05:30:16.031Z,64.13
2022-08-23T05:32:48.284Z,63.50
2022-08-23T05:35:20.851Z,62.46
2022-08-23T05:37:53.354Z,61.42
2022-08-23T05:40:25.604Z,60.60
2022-08-23T05:43:06.441Z,59.07
2022-08-23T05:45:38.672Z,58.26
2022-08-23T05:48:11.550Z,57.75
2022-08-23T05:50:56.081Z,57.34
2022-08-23T05:53:28.398Z,57.05
2022-08-23T05:56:09.261Z,56.18
2022-08-23T05:58:42.242Z,55.83
2022-08-23T06:01:15.137Z,55.26
2022-08-23T06:03:48.523Z,54.28
2022-08-23T06:06:21.656Z,53.57
2022-08-23T06:08:53.942Z,52.91
2022-08-23T06:11:28.141Z,52.55
2022-08-23T06:14:02.789Z,51.57
2022-08-23T06:16:37.869Z,51.06
2022-08-23T06:19:11.131Z,50.24
2022-08-23T06:21:55.664Z,49.15
2022-08-23T06:24:35.916Z,48.17
2022-08-23T06:27:18.937Z,46.82
2022-08-23T06:29:51.143Z,45.50
2022-08-23T06:32:38.740Z,44.51
2022-08-23T06:35:39.490Z,43.34
2022-08-23T06:38:36.192Z,42.41
2022-08-23T06:41:34.714Z,41.50
2022-08-23T06:44:32.620Z,40.72
2022-08-23T06:47:23.003Z,40.15
2022-08-23T06:49:57.631Z,39.41
2022-08-23T06:52:59.369Z,38.29
2022-08-23T06:55:45.469Z,37.51
2022-08-23T06:58:27.771Z,37.15
2022-08-23T07:01:44.585Z,36.83
2022-08-23T07:04:46.074Z,36.59
2022-08-23T07:07:37.679Z,36.41
2022-08-23T07:10:17.387Z,36.20
2022-08-23T07:12:50.257Z,36.22
2022-08-23T07:15:25.359Z,35.93
2022-08-23T07:17:57.808Z,35.73
2022-08-23T07:20:29.879Z,35.50
2022-08-23T07:23:02.302Z,35.26
2022-08-23T07:25:34.696Z,34.92
2022-08-23T07:28:12.297Z,35.01
2022-08-23T07:30:46.249Z,34.66
2022-08-23T07:33:19.796Z,34.64
2022-08-23T07:36:20.176Z,34.44
2022-08-23T07:38:53.222Z,34.71
2022-08-23T07:41:31.021Z,34.79
2022-08-23T07:44:08.286Z,34.92
2022-08-23T07:46:44.352Z,35.09
2022-08-23T07:49:17.408Z,35.29
2022-08-23T07:51:53.452Z,35.64
2022-08-23T07:54:28.085Z,35.82
2022-08-23T07:57:32.226Z,36.09
2022-08-23T08:00:19.026Z,36.24
2022-08-23T08:03:00.532Z,36.72
2022-08-23T08:05:40.716Z,37.23
2022-08-23T08:08:13.607Z,37.72
2022-08-23T08:10:45.830Z,37.92
2022-08-23T08:13:17.901Z,38.16
2022-08-23T08:15:50.726Z,37.53
2022-08-23T08:18:23.213Z,37.01
2022-08-23T08:21:16.937Z,36.91
2022-08-23T08:24:14.242Z,36.33
2022-08-23T08:26:50.383Z,35.82
2022-08-23T08:29:22.771Z,35.11
2022-08-23T08:31:56.573Z,34.75
2022-08-23T08:34:28.613Z,34.25
2022-08-23T08:37:01.059Z,34.62
2022-08-23T08:39:34.751Z,35.01
2022-08-23T08:42:26.798Z,35.60
2022-08-23T08:45:03.993Z,36.28
2022-08-23T08:47:48.593Z,36.93
2022-08-23T08:50:26.698Z,37.40
2022-08-23T08:53:09.368Z,38.26
2022-08-23T08:56:12.169Z,38.90
2022-08-23T08:58:53.137Z,39.45
2022-08-23T09:01:28.603Z,39.96
2022-08-23T09:04:01.955Z,40.30
2022-08-23T09:06:44.081Z,40.64
2022-08-23T09:09:34.339Z,41.10
2022-08-23T09:12:19.238Z,41.62
2022-08-23T09:15:07.211Z,42.20
2022-08-23T09:17:45.155Z,42.02
2022-08-23T09:20:20.939Z,41.96
2022-08-23T09:23:10.205Z,41.67
2022-08-23T09:25:52.032Z,41.43
2022-08-23T09:28:25.099Z,41.52
2022-08-23T09:31:00.442Z,41.68
2022-08-23T09:33:42.870Z,41.65
2022-08-23T09:36:29.010Z,41.51
2022-08-23T09:39:07.209Z,41.83
2022-08-23T09:41:43.780Z,41.83
2022-08-23T09:44:31.427Z,41.85
2022-08-23T09:47:11.985Z,42.24
2022-08-23T09:49:51.524Z,42.07
2022-08-23T09:52:27.215Z,41.87
2022-08-23T09:55:10.028Z,41.39
2022-08-23T09:57:49.982Z,40.67
2022-08-23T10:00:29.316Z,40.32
2022-08-23T10:03:23.617Z,39.05
2022-08-23T10:06:00.896Z,38.71
2022-08-23T10:08:43.112Z,38.21
2022-08-23T10:11:22.820Z,38.15
2022-08-23T10:13:55.132Z,37.43
2022-08-23T10:16:38.435Z,36.94
2022-08-23T10:19:27.181Z,36.32
2022-08-23T10:22:15.182Z,35.77
2022-08-23T10:25:02.722Z,35.08
2022-08-23T10:28:02.729Z,35.05
2022-08-23T10:30:38.001Z,35.09
2022-08-23T10:33:18.562Z,34.89
2022-08-23T10:36:03.256Z,35.05
2022-08-23T10:38:43.925Z,34.99
2022-08-23T10:41:35.264Z,35.05
2022-08-23T10:44:24.359Z,35.11
2022-08-23T10:47:09.962Z,35.81
2022-08-23T10:49:45.222Z,35.90
2022-08-23T10:52:22.007Z,35.43
2022-08-23T10:55:06.549Z,35.54
2022-08-23T10:57:41.957Z,35.54
2022-08-23T11:00:21.059Z,35.30
2022-08-23T11:03:01.349Z,34.98
2022-08-23T11:05:39.367Z,34.51
2022-08-23T11:08:36.947Z,34.68
2022-08-23T11:11:40.077Z,34.35
2022-08-23T11:14:14.873Z,34.14
2022-08-23T11:16:48.827Z,33.45
2022-08-23T11:19:53.070Z,32.91
2022-08-23T11:22:27.471Z,32.67
2022-08-23T11:25:05.211Z,32.96
2022-08-23T11:27:44.281Z,32.82
2022-08-23T11:30:34.886Z,32.19
2022-08-23T11:33:20.237Z,32.44
2022-08-23T11:35:55.939Z,32.58
2022-08-23T11:39:05.518Z,32.72
2022-08-23T11:41:59.060Z,32.07
2022-08-23T11:44:42.183Z,32.21
2022-08-23T11:47:27.899Z,31.76
2022-08-23T11:50:27.193Z,32.26
2022-08-23T11:53:16.997Z,32.64
2022-08-23T11:56:18.812Z,33.41
2022-08-23T11:59:15.780Z,33.60
2022-08-23T12:01:48.277Z,34.01
2022-08-23T12:04:37.584Z,34.09
2022-08-23T12:07:13.467Z,34.77
2022-08-23T12:09:57.614Z,35.22
2022-08-23T12:12:38.776Z,35.49
2022-08-23T12:15:13.844Z,35.94
2022-08-23T12:18:13.397Z,35.94
2022-08-23T12:20:48.571Z,36.15
2022-08-23T12:23:23.926Z,36.74
2022-08-23T12:26:13.101Z,36.26
2022-08-23T12:28:50.829Z,35.61
2022-08-23T12:31:33.637Z,35.27
2022-08-23T12:34:22.398Z,34.98
2022-08-23T12:37:08.846Z,34.75
2022-08-23T12:39:41.648Z,35.25
2022-08-23T12:42:16.786Z,34.52
2022-08-23T12:45:00.370Z,34.59
2022-08-23T12:47:33.527Z,34.73
2022-08-23T12:50:10.697Z,34.91
2022-08-23T12:52:43.491Z,35.45
2022-08-23T12:55:18.604Z,35.67
2022-08-23T12:57:58.287Z,36.19
2022-08-23T13:00:34.487Z,36.35
2022-08-23T13:03:21.149Z,36.72
2022-08-23T13:06:02.065Z,37.30
2022-08-23T13:08:40.463Z,37.69
2022-08-23T13:11:15.853Z,37.83
2022-08-23T13:13:48.298Z,37.67
2022-08-23T13:16:32.372Z,37.05
2022-08-23T13:19:19.314Z,36.49
2022-08-23T13:22:09.858Z,36.67
2022-08-23T13:24:44.076Z,36.35
2022-08-23T13:27:22.419Z,36.46
2022-08-23T13:29:58.143Z,36.39
2022-08-23T13:32:34.064Z,36.42
2022-08-23T13:35:36.784Z,36.37
2022-08-23T13:38:21.564Z,35.90
2022-08-23T13:41:05.092Z,35.73
2022-08-23T13:43:46.973Z,35.60
2022-08-23T13:46:23.049Z,35.58
2022-08-23T13:49:00.039Z,35.61
2022-08-23T13:51:37.139Z,35.40
2022-08-23T13:54:11.555Z,35.24
2022-08-23T13:56:50.493Z,35.34
2022-08-23T13:59:31.533Z,35.51
2022-08-23T14:02:08.392Z,35.78
2022-08-23T14:04:41.669Z,36.15
2022-08-23T14:07:15.345Z,36.13
2022-08-23T14:09:52.010Z,36.24
2022-08-23T14:12:29.365Z,36.84
2022-08-23T14:15:05.431Z,36.64
2022-08-23T14:17:43.045Z,36.54
2022-08-23T14:20:43.770Z,36.66
2022-08-23T14:23:11.964Z,37.24
2022-08-23T14:25:47.197Z,37.37
2022-08-23T14:28:19.971Z,37.58
2022-08-23T14:30:52.655Z,37.64
2022-08-23T14:33:25.029Z,37.62
2022-08-23T14:35:57.398Z,37.94
2022-08-23T14:38:29.689Z,38.02
2022-08-23T14:41:10.242Z,38.12
2022-08-23T14:43:42.646Z,38.29
2022-08-23T14:46:14.882Z,38.49
2022-08-23T14:48:47.393Z,38.82
2022-08-23T14:51:28.796Z,38.61
2022-08-23T14:54:03.882Z,39.41
2022-08-23T14:56:36.430Z,39.25
2022-08-23T14:59:08.759Z,39.38
2022-08-23T15:01:41.443Z,39.57
2022-08-23T15:04:18.236Z,39.73
2022-08-23T15:07:17.701Z,39.63
2022-08-23T15:09:44.516Z,40.34
2022-08-23T15:15:12.695Z,42.47
2022-08-23T15:17:52.655Z,43.30
2022-08-23T15:20:33.591Z,43.87
2022-08-23T15:23:06.581Z,44.52
2022-08-23T15:25:42.360Z,45.08
2022-08-23T15:28:19.060Z,45.90
2022-08-23T15:30:50.602Z,46.50
2022-08-23T15:33:27.009Z,47.05
2022-08-23T15:36:05.172Z,47.72
2022-08-23T15:38:38.514Z,48.21
2022-08-23T15:41:10.872Z,48.43
2022-08-23T15:43:44.487Z,48.83
2022-08-23T15:46:21.583Z,49.27
2022-08-23T15:48:58.584Z,49.65
2022-08-23T15:51:31.655Z,49.62
2022-08-23T15:54:06.197Z,49.77
2022-08-23T15:56:42.640Z,49.78
2022-08-23T15:59:14.555Z,49.92
2022-08-23T16:01:53.069Z,50.21
2022-08-23T16:04:25.544Z,50.37
2022-08-23T16:06:57.783Z,50.72
2022-08-23T16:09:31.275Z,51.03
2022-08-23T16:12:03.419Z,51.30
2022-08-23T16:14:35.531Z,51.41
2022-08-23T16:17:08.461Z,51.52
2022-08-23T16:19:40.683Z,51.98
2022-08-23T16:22:12.889Z,52.14
2022-08-23T16:24:45.319Z,52.26
2022-08-23T16:27:17.390Z,52.45
2022-08-23T16:29:49.771Z,52.63
2022-08-23T16:32:23.930Z,52.48
2022-08-23T16:34:57.903Z,52.62
2022-08-23T16:37:30.037Z,52.98
2022-08-23T16:40:03.229Z,53.16
2022-08-23T16:42:35.686Z,53.22
2022-08-23T16:45:09.519Z,53.33
2022-08-23T16:47:45.359Z,53.60
2022-08-23T16:50:17.673Z,53.74
2022-08-23T16:52:49.824Z,54.09
2022-08-23T16:55:22.588Z,54.17
2022-08-23T16:57:54.702Z,54.27
2022-08-23T17:00:27.915Z,54.37
2022-08-23T17:03:00.320Z,54.57
2022-08-23T17:05:33.095Z,54.47
2022-08-23T17:08:05.811Z,54.45
2022-08-23T17:10:39.495Z,54.92
2022-08-23T17:13:14.083Z,54.75
2022-08-23T17:15:48.473Z,54.93
2022-08-23T17:18:27.816Z,55.19
2022-08-23T17:21:00.395Z,55.11
2022-08-23T17:23:33.141Z,55.64
2022-08-23T17:26:09.817Z,55.83
2022-08-23T17:28:43.200Z,56.21
2022-08-23T17:31:16.242Z,56.33
2022-08-23T17:33:48.844Z,56.69
2022-08-23T17:36:32.445Z,57.04
2022-08-23T17:39:06.775Z,57.42
2022-08-23T17:41:44.980Z,57.80
2022-08-23T17:44:20.410Z,58.00
2022-08-23T17:46:53.115Z,58.40
2022-08-23T17:49:25.675Z,58.65
2022-08-23T17:51:57.764Z,58.90
2022-08-23T17:54:30.112Z,59.07
2022-08-23T17:57:04.884Z,59.47
2022-08-23T17:59:38.035Z,59.65
2022-08-23T18:02:10.234Z,60.18
2022-08-23T18:04:42.402Z,60.29
2022-08-23T18:07:14.601Z,60.60
2022-08-23T18:09:48.575Z,60.81
2022-08-23T18:12:21.652Z,60.83
2022-08-23T18:14:54.319Z,61.19
2022-08-23T18:17:26.969Z,61.25
2022-08-23T18:19:59.064Z,61.37
2022-08-23T18:22:31.333Z,61.61
2022-08-23T18:25:03.710Z,61.83
2022-08-23T18:27:53.661Z,61.92
2022-08-23T18:30:26.287Z,62.16
2022-08-23T18:32:58.551Z,62.29
2022-08-23T18:35:32.634Z,62.40
2022-08-23T18:38:05.454Z,62.39
2022-08-23T18:40:45.427Z,62.52
2022-08-23T18:43:20.101Z,62.51
2022-08-23T18:45:54.561Z,62.48
2022-08-23T18:48:27.192Z,62.58
2022-08-23T18:51:00.317Z,62.53
2022-08-23T18:53:32.781Z,62.50
2022-08-23T18:56:05.724Z,62.66
2022-08-23T18:58:37.848Z,62.80
2022-08-23T19:01:24.930Z,62.88
2022-08-23T19:04:00.464Z,63.11
2022-08-23T19:06:33.286Z,63.27
2022-08-23T19:09:06.563Z,63.41
2022-08-23T19:11:39.552Z,63.76
2022-08-23T19:14:12.798Z,63.86
2022-08-23T19:16:48.587Z,63.96
2022-08-23T19:19:21.179Z,64.16
2022-08-23T19:21:53.569Z,64.15
2022-08-23T19:24:25.960Z,64.35
2022-08-23T19:26:58.710Z,64.64
2022-08-23T19:29:31.857Z,64.64
2022-08-23T19:32:04.374Z,64.91
2022-08-23T19:34:36.551Z,65.08
2022-08-23T19:37:10.863Z,64.90
2022-08-23T19:39:53.315Z,65.20
2022-08-23T19:42:26.783Z,65.29
2022-08-23T19:44:58.994Z,65.35
2022-08-23T19:47:31.415Z,65.27
2022-08-23T19:50:04.913Z,65.27
2022-08-23T19:52:37.334Z,65.26
2022-08-23T19:55:12.120Z,65.16
2022-08-23T19:57:44.329Z,65.22
2022-08-23T20:00:19.800Z,65.13
2022-08-23T20:02:52.583Z,65.03
2022-08-23T20:05:24.780Z,64.97
2022-08-23T20:07:57.420Z,64.84
2022-08-23T20:10:30.249Z,64.64
2022-08-23T20:13:02.455Z,64.73
2022-08-23T20:15:34.754Z,64.70
2022-08-23T20:18:07.453Z,64.79
2022-08-23T20:20:39.671Z,64.71
2022-08-23T20:23:29.409Z,64.54
2022-08-23T20:26:01.592Z,64.58
2022-08-23T20:28:33.852Z,64.68
2022-08-23T20:31:16.162Z,64.52
2022-08-23T20:33:48.572Z,64.49
2022-08-23T20:36:21.475Z,64.45
2022-08-23T20:38:53.598Z,64.35
2022-08-23T20:41:25.952Z,64.39
2022-08-23T20:44:00.993Z,64.38
2022-08-23T20:46:33.926Z,64.19
2022-08-23T20:49:09.213Z,64.23
2022-08-23T20:51:42.052Z,64.32
2022-08-23T20:54:15.627Z,64.27
2022-08-23T20:56:50.548Z,64.39
2022-08-23T20:59:23.204Z,64.29
2022-08-23T21:01:55.447Z,64.44
2022-08-23T21:04:29.997Z,64.44
2022-08-23T21:07:02.967Z,64.35
2022-08-23T21:09:35.979Z,64.36
2022-08-23T21:12:09.216Z,64.41
2022-08-23T21:14:41.436Z,64.54
2022-08-23T21:17:13.548Z,64.42
2022-08-23T21:19:48.742Z,64.62
2022-08-23T21:22:20.947Z,64.50
2022-08-23T21:24:53.507Z,64.62
2022-08-23T21:27:27.216Z,64.52
2022-08-23T21:29:59.884Z,64.53
2022-08-23T21:32:32.142Z,64.71
2022-08-23T21:35:05.066Z,64.67
2022-08-23T21:37:37.314Z,64.62
2022-08-23T21:40:11.648Z,64.55
2022-08-23T21:42:44.314Z,64.72
2022-08-23T21:45:16.427Z,64.74
2022-08-23T21:47:49.019Z,64.68
2022-08-23T21:50:21.348Z,64.80
2022-08-23T21:52:58.850Z,64.74
2022-08-23T21:55:36.942Z,64.87
2022-08-23T21:58:10.076Z,64.87
2022-08-23T22:00:43.502Z,64.97
2022-08-23T22:03:15.698Z,65.04
2022-08-23T22:05:50.393Z,65.05
2022-08-23T22:08:22.576Z,65.13
2022-08-23T22:10:57.842Z,65.23
2022-08-23T22:13:33.054Z,65.10
2022-08-23T22:16:07.089Z,65.37
2022-08-23T22:18:39.788Z,65.49
2022-08-23T22:21:12.340Z,65.50
2022-08-23T22:23:45.049Z,65.72
2022-08-23T22:26:17.242Z,65.71
2022-08-23T22:28:49.550Z,65.80
2022-08-23T22:31:21.872Z,65.86
2022-08-23T22:33:54.075Z,65.71
2022-08-23T22:36:27.366Z,65.90
2022-08-23T22:38:59.676Z,65.74
2022-08-23T22:41:32.799Z,65.88
2022-08-23T22:44:06.068Z,65.79
2022-08-23T22:46:38.296Z,65.85
2022-08-23T22:49:10.801Z,65.79
2022-08-23T22:51:43.828Z,65.89
2022-08-23T22:54:16.007Z,65.70
2022-08-23T22:56:50.740Z,65.65
2022-08-23T22:59:27.647Z,65.59
2022-08-23T23:02:05.317Z,65.58
2022-08-23T23:04:37.583Z,65.70
2022-08-23T23:07:09.653Z,65.63
2022-08-23T23:09:43.835Z,65.78
2022-08-23T23:12:15.937Z,65.72
2022-08-23T23:14:48.255Z,65.91
2022-08-23T23:17:20.382Z,65.91
2022-08-23T23:20:09.703Z,66.10
2022-08-23T23:22:44.300Z,65.89
2022-08-23T23:25:16.523Z,65.81
2022-08-23T23:27:48.606Z,65.82
2022-08-23T23:30:21.268Z,66.03
2022-08-23T23:32:54.314Z,65.98
2022-08-23T23:35:28.346Z,65.93
2022-08-23T23:38:00.537Z,66.04
2022-08-23T23:40:32.864Z,66.07
2022-08-23T23:43:05.265Z,65.79
2022-08-23T23:45:38.522Z,65.92
2022-08-23T23:48:10.761Z,65.98
2022-08-23T23:50:45.550Z,65.95
2022-08-23T23:53:20.431Z,66.16
2022-08-23T23:56:02.205Z,65.94
2022-08-23T23:58:35.527Z,65.99
